CheckWX is a tool to help pilots better visualize weather data.  It is not intended as a substitute for an official pre-flight weather briefing.

04:17:33 UTC

KSME TAF
Lake Cumberland Regional Airport
Somerset, Kentucky, USA
KSME 262338Z 2700/2724 VRB03KT P6SM FEW060 FEW200 FM270800 VRB03KT 4SM BR FEW050 FEW250 FM271300 VRB03KT P6SM FEW045 FEW250

Jun-27@
00:00 UTC

Jun-27 @ 00:00 UTC

Jun-27@
08:00 UTC

Jun-27 @ 08:00 UTC

KSME 262338Z 2700/2724 VRB03KT P6SM FEW060 FEW200
Wind
  • Variable at 3 KTS
Cloud Levels
  • Few at 6,000' AGL
  • Few at 20,000' AGL

Jun-27@
08:00 UTC

Jun-27 @ 08:00 UTC

Jun-27@
13:00 UTC

Jun-27 @ 13:00 UTC

FM270800 VRB03KT 4SM BR FEW050 FEW250

From

From Standard forecast or significant change

Wind
  • Variable at 3 KTS
Conditions
Mist
Cloud Levels
  • Few at 5,000' AGL
  • Few at 25,000' AGL

Jun-27@
13:00 UTC

Jun-27 @ 13:00 UTC

Jun-28@
00:00 UTC

Jun-28 @ 00:00 UTC

FM271300 VRB03KT P6SM FEW045 FEW250

From

From Standard forecast or significant change

Wind
  • Variable at 3 KTS
Cloud Levels
  • Few at 4,500' AGL
  • Few at 25,000' AGL